sensor_id;sensor_type;location;lat;lon;timestamp;P1;durP1;ratioP1;P2;durP2;ratioP2
19727;SDS011;10015;52.530;13.390;2022-10-16T05:32:16;2.43;;;1.40;;
19727;SDS011;10015;52.530;13.390;2022-10-16T05:34:43;3.53;;;1.50;;
19727;SDS011;10015;52.530;13.390;2022-10-16T05:37:10;2.13;;;1.57;;
19727;SDS011;10015;52.530;13.390;2022-10-16T05:39:37;3.07;;;1.80;;
19727;SDS011;10015;52.530;13.390;2022-10-16T05:42:06;1.77;;;1.53;;
19727;SDS011;10015;52.530;13.390;2022-10-16T05:44:33;1.93;;;1.50;;
19727;SDS011;10015;52.530;13.390;2022-10-16T05:46:58;2.00;;;1.57;;
19727;SDS011;10015;52.530;13.390;2022-10-16T05:49:24;2.53;;;1.60;;
19727;SDS011;10015;52.530;13.390;2022-10-16T05:51:50;3.47;;;1.70;;
19727;SDS011;10015;52.530;13.390;2022-10-16T05:54:16;2.60;;;1.87;;
19727;SDS011;10015;52.530;13.390;2022-10-16T05:56:42;2.90;;;1.67;;
19727;SDS011;10015;52.530;13.390;2022-10-16T05:59:08;4.27;;;1.70;;
19727;SDS011;10015;52.530;13.390;2022-10-16T06:01:34;3.20;;;1.90;;
19727;SDS011;10015;52.530;13.390;2022-10-16T06:04:00;2.67;;;1.80;;
19727;SDS011;10015;52.530;13.390;2022-10-16T06:06:27;2.17;;;1.77;;
19727;SDS011;10015;52.530;13.390;2022-10-16T06:08:54;3.60;;;1.83;;
19727;SDS011;10015;52.530;13.390;2022-10-16T06:11:23;2.97;;;2.10;;
19727;SDS011;10015;52.530;13.390;2022-10-16T06:13:57;2.90;;;2.10;;
19727;SDS011;10015;52.530;13.390;2022-10-16T06:16:25;2.83;;;2.00;;
19727;SDS011;10015;52.530;13.390;2022-10-16T06:18:52;2.30;;;2.03;;
19727;SDS011;10015;52.530;13.390;2022-10-16T06:21:20;4.63;;;1.90;;
19727;SDS011;10015;52.530;13.390;2022-10-16T06:23:47;2.47;;;1.90;;
19727;SDS011;10015;52.530;13.390;2022-10-16T06:26:17;2.43;;;2.03;;
19727;SDS011;10015;52.530;13.390;2022-10-16T06:28:45;2.80;;;1.90;;
19727;SDS011;10015;52.530;13.390;2022-10-16T06:31:12;3.20;;;1.80;;
19727;SDS011;10015;52.530;13.390;2022-10-16T06:33:39;4.03;;;2.00;;
19727;SDS011;10015;52.530;13.390;2022-10-16T06:36:07;2.30;;;2.07;;
19727;SDS011;10015;52.530;13.390;2022-10-16T06:38:34;4.23;;;2.00;;
19727;SDS011;10015;52.530;13.390;2022-10-16T06:41:00;2.40;;;2.20;;
19727;SDS011;10015;52.530;13.390;2022-10-16T06:43:28;3.10;;;1.80;;
19727;SDS011;10015;52.530;13.390;2022-10-16T06:46:02;2.77;;;1.80;;
19727;SDS011;10015;52.530;13.390;2022-10-16T06:48:29;2.07;;;1.87;;
19727;SDS011;10015;52.530;13.390;2022-10-16T06:50:59;3.90;;;2.17;;
19727;SDS011;10015;52.530;13.390;2022-10-16T06:53:27;4.17;;;1.80;;
19727;SDS011;10015;52.530;13.390;2022-10-16T06:55:56;2.57;;;2.13;;
19727;SDS011;10015;52.530;13.390;2022-10-16T06:58:22;2.07;;;1.87;;
19727;SDS011;10015;52.530;13.390;2022-10-16T07:00:49;2.33;;;2.10;;
19727;SDS011;10015;52.530;13.390;2022-10-16T07:03:22;2.43;;;2.23;;
19727;SDS011;10015;52.530;13.390;2022-10-16T07:05:48;2.53;;;2.20;;
19727;SDS011;10015;52.530;13.390;2022-10-16T07:08:14;2.80;;;1.90;;
19727;SDS011;10015;52.530;13.390;2022-10-16T07:10:40;2.60;;;2.07;;
19727;SDS011;10015;52.530;13.390;2022-10-16T07:13:06;4.17;;;2.03;;
19727;SDS011;10015;52.530;13.390;2022-10-16T07:15:35;3.90;;;2.23;;
19727;SDS011;10015;52.530;13.390;2022-10-16T07:18:02;2.40;;;1.80;;
19727;SDS011;10015;52.530;13.390;2022-10-16T07:20:28;2.90;;;1.63;;
19727;SDS011;10015;52.530;13.390;2022-10-16T07:22:54;2.40;;;1.90;;
19727;SDS011;10015;52.530;13.390;2022-10-16T07:25:20;1.60;;;1.47;;
19727;SDS011;10015;52.530;13.390;2022-10-16T07:27:46;2.33;;;1.40;;
19727;SDS011;10015;52.530;13.390;2022-10-16T07:30:11;1.50;;;1.40;;
19727;SDS011;10015;52.530;13.390;2022-10-16T07:32:37;2.27;;;1.60;;
19727;SDS011;10015;52.530;13.390;2022-10-16T07:35:04;3.93;;;1.70;;
19727;SDS011;10015;52.530;13.390;2022-10-16T07:37:30;1.43;;;1.30;;
19727;SDS011;10015;52.530;13.390;2022-10-16T07:39:57;2.23;;;1.60;;
19727;SDS011;10015;52.530;13.390;2022-10-16T07:42:23;1.63;;;1.50;;
19727;SDS011;10015;52.530;13.390;2022-10-16T07:44:49;1.57;;;1.30;;
19727;SDS011;10015;52.530;13.390;2022-10-16T07:47:15;4.07;;;1.97;;
19727;SDS011;10015;52.530;13.390;2022-10-16T07:49:41;1.63;;;1.50;;
19727;SDS011;10015;52.530;13.390;2022-10-16T07:52:06;1.40;;;1.30;;
19727;SDS011;10015;52.530;13.390;2022-10-16T07:54:33;2.60;;;1.53;;
19727;SDS011;10015;52.530;13.390;2022-10-16T07:56:58;1.40;;;1.30;;
19727;SDS011;10015;52.530;13.390;2022-10-16T07:59:24;1.43;;;1.17;;
19727;SDS011;10015;52.530;13.390;2022-10-16T08:01:50;1.30;;;1.20;;
19727;SDS011;10015;52.530;13.390;2022-10-16T08:04:16;2.80;;;1.40;;
19727;SDS011;10015;52.530;13.390;2022-10-16T08:06:42;2.33;;;1.40;;
19727;SDS011;10015;52.530;13.390;2022-10-16T08:09:08;2.03;;;1.50;;
19727;SDS011;10015;52.530;13.390;2022-10-16T08:11:34;2.03;;;1.53;;
19727;SDS011;10015;52.530;13.390;2022-10-16T08:14:00;3.77;;;2.37;;
19727;SDS011;10015;52.530;13.390;2022-10-16T08:16:26;4.50;;;2.20;;
19727;SDS011;10015;52.530;13.390;2022-10-16T08:18:52;2.57;;;1.40;;
19727;SDS011;10015;52.530;13.390;2022-10-16T08:21:19;2.17;;;1.70;;
19727;SDS011;10015;52.530;13.390;2022-10-16T08:23:48;3.37;;;1.80;;
19727;SDS011;10015;52.530;13.390;2022-10-16T08:26:15;4.20;;;1.67;;
19727;SDS011;10015;52.530;13.390;2022-10-16T08:28:41;1.57;;;1.33;;
19727;SDS011;10015;52.530;13.390;2022-10-16T08:31:08;1.63;;;1.50;;
19727;SDS011;10015;52.530;13.390;2022-10-16T08:33:35;1.33;;;1.23;;
19727;SDS011;10015;52.530;13.390;2022-10-16T08:36:03;2.83;;;1.70;;
19727;SDS011;10015;52.530;13.390;2022-10-16T08:38:30;8.50;;;4.53;;
19727;SDS011;10015;52.530;13.390;2022-10-16T08:49:14;2.63;;;2.00;;
19727;SDS011;10015;52.530;13.390;2022-10-16T08:51:40;2.07;;;1.60;;
19727;SDS011;10015;52.530;13.390;2022-10-16T08:54:15;5.23;;;2.20;;
19727;SDS011;10015;52.530;13.390;2022-10-16T08:56:45;4.40;;;2.13;;
19727;SDS011;10015;52.530;13.390;2022-10-16T08:59:10;3.63;;;1.63;;
19727;SDS011;10015;52.530;13.390;2022-10-16T09:01:40;4.73;;;1.70;;
19727;SDS011;10015;52.530;13.390;2022-10-16T09:12:35;12.90;;;6.23;;
19727;SDS011;10015;52.530;13.390;2022-10-16T09:20:42;2.40;;;1.63;;
19727;SDS011;10015;52.530;13.390;2022-10-16T09:23:27;3.23;;;1.90;;
19727;SDS011;10015;52.530;13.390;2022-10-16T09:25:55;3.33;;;1.90;;
19727;SDS011;10015;52.530;13.390;2022-10-16T09:28:23;4.97;;;2.37;;
19727;SDS011;10015;52.530;13.390;2022-10-16T09:30:49;8.10;;;3.00;;
19727;SDS011;10015;52.530;13.390;2022-10-16T09:33:16;5.90;;;2.13;;
19727;SDS011;10015;52.530;13.390;2022-10-16T09:35:45;9.83;;;4.07;;
19727;SDS011;10015;52.530;13.390;2022-10-16T09:38:27;11.17;;;6.20;;
19727;SDS011;10015;52.530;13.390;2022-10-16T09:40:58;9.40;;;4.87;;
19727;SDS011;10015;52.530;13.390;2022-10-16T09:43:41;3.67;;;2.07;;
19727;SDS011;10015;52.530;13.390;2022-10-16T09:48:51;1.63;;;0.93;;
19727;SDS011;10015;52.530;13.390;2022-10-16T09:51:28;1.67;;;1.43;;
19727;SDS011;10015;52.530;13.390;2022-10-16T09:54:02;2.53;;;1.80;;
19727;SDS011;10015;52.530;13.390;2022-10-16T09:56:38;2.60;;;1.27;;
19727;SDS011;10015;52.530;13.390;2022-10-16T09:59:10;3.03;;;1.50;;
19727;SDS011;10015;52.530;13.390;2022-10-16T10:01:47;1.53;;;1.30;;
19727;SDS011;10015;52.530;13.390;2022-10-16T10:04:22;1.60;;;1.27;;
19727;SDS011;10015;52.530;13.390;2022-10-16T10:06:50;2.83;;;1.40;;
19727;SDS011;10015;52.530;13.390;2022-10-16T10:09:21;10.10;;;6.80;;
19727;SDS011;10015;52.530;13.390;2022-10-16T10:11:55;15.43;;;8.83;;
19727;SDS011;10015;52.530;13.390;2022-10-16T10:14:34;4.18;;;2.33;;
19727;SDS011;10015;52.530;13.390;2022-10-16T10:19:38;3.93;;;1.60;;
19727;SDS011;10015;52.530;13.390;2022-10-16T10:22:25;4.03;;;1.30;;
19727;SDS011;10015;52.530;13.390;2022-10-16T10:30:25;1.13;;;0.90;;
19727;SDS011;10015;52.530;13.390;2022-10-16T10:33:24;4.77;;;2.10;;
19727;SDS011;10015;52.530;13.390;2022-10-16T10:38:38;2.33;;;1.70;;
19727;SDS011;10015;52.530;13.390;2022-10-16T10:49:54;4.80;;;3.07;;
19727;SDS011;10015;52.530;13.390;2022-10-16T11:03:13;2.97;;;2.03;;
19727;SDS011;10015;52.530;13.390;2022-10-16T11:08:43;2.33;;;1.40;;
19727;SDS011;10015;52.530;13.390;2022-10-16T11:11:19;2.13;;;1.40;;
19727;SDS011;10015;52.530;13.390;2022-10-16T11:14:05;1.30;;;1.00;;
19727;SDS011;10015;52.530;13.390;2022-10-16T11:16:42;1.37;;;1.07;;
19727;SDS011;10015;52.530;13.390;2022-10-16T11:19:21;3.22;;;1.10;;
19727;SDS011;10015;52.530;13.390;2022-10-16T11:21:51;2.72;;;1.20;;
19727;SDS011;10015;52.530;13.390;2022-10-16T11:24:59;3.63;;;1.40;;
19727;SDS011;10015;52.530;13.390;2022-10-16T11:30:29;4.60;;;1.60;;
19727;SDS011;10015;52.530;13.390;2022-10-16T11:40:47;6.60;;;2.27;;
19727;SDS011;10015;52.530;13.390;2022-10-16T11:45:58;7.70;;;4.13;;
19727;SDS011;10015;52.530;13.390;2022-10-16T11:48:32;2.50;;;1.33;;
19727;SDS011;10015;52.530;13.390;2022-10-16T11:51:14;3.33;;;1.50;;
19727;SDS011;10015;52.530;13.390;2022-10-16T11:54:02;1.23;;;1.00;;
19727;SDS011;10015;52.530;13.390;2022-10-16T11:56:30;4.17;;;1.40;;
19727;SDS011;10015;52.530;13.390;2022-10-16T11:59:07;3.38;;;1.10;;
19727;SDS011;10015;52.530;13.390;2022-10-16T12:01:44;1.40;;;1.10;;
19727;SDS011;10015;52.530;13.390;2022-10-16T12:06:55;5.73;;;1.20;;
19727;SDS011;10015;52.530;13.390;2022-10-16T12:09:28;1.57;;;1.10;;
19727;SDS011;10015;52.530;13.390;2022-10-16T12:11:57;1.08;;;0.82;;
19727;SDS011;10015;52.530;13.390;2022-10-16T12:14:35;2.03;;;1.30;;
19727;SDS011;10015;52.530;13.390;2022-10-16T12:17:04;2.13;;;1.17;;
19727;SDS011;10015;52.530;13.390;2022-10-16T12:22:40;11.50;;;7.88;;
19727;SDS011;10015;52.530;13.390;2022-10-16T12:25:30;6.18;;;3.42;;
19727;SDS011;10015;52.530;13.390;2022-10-16T12:30:32;2.97;;;1.20;;
19727;SDS011;10015;52.530;13.390;2022-10-16T12:33:05;1.20;;;0.93;;
19727;SDS011;10015;52.530;13.390;2022-10-16T12:35:35;1.08;;;0.73;;
19727;SDS011;10015;52.530;13.390;2022-10-16T12:41:06;2.17;;;0.73;;
19727;SDS011;10015;52.530;13.390;2022-10-16T12:43:39;1.25;;;0.68;;
19727;SDS011;10015;52.530;13.390;2022-10-16T12:48:39;4.63;;;0.80;;
19727;SDS011;10015;52.530;13.390;2022-10-16T12:54:30;0.50;;;0.50;;
19727;SDS011;10015;52.530;13.390;2022-10-16T13:00:09;0.77;;;0.60;;
19727;SDS011;10015;52.530;13.390;2022-10-16T13:03:07;4.18;;;2.67;;
19727;SDS011;10015;52.530;13.390;2022-10-16T13:11:41;3.50;;;0.82;;
19727;SDS011;10015;52.530;13.390;2022-10-16T13:19:54;2.38;;;0.70;;
19727;SDS011;10015;52.530;13.390;2022-10-16T13:23:48;1.00;;;0.70;;
19727;SDS011;10015;52.530;13.390;2022-10-16T13:28:31;3.00;;;1.70;;
19727;SDS011;10015;52.530;13.390;2022-10-16T13:30:59;2.17;;;0.80;;
19727;SDS011;10015;52.530;13.390;2022-10-16T13:33:42;0.75;;;0.60;;
19727;SDS011;10015;52.530;13.390;2022-10-16T13:36:18;0.57;;;0.50;;
19727;SDS011;10015;52.530;13.390;2022-10-16T13:39:20;1.08;;;0.70;;
19727;SDS011;10015;52.530;13.390;2022-10-16T13:41:57;1.73;;;1.10;;
19727;SDS011;10015;52.530;13.390;2022-10-16T13:44:28;2.33;;;1.15;;
19727;SDS011;10015;52.530;13.390;2022-10-16T13:47:02;2.78;;;0.90;;
19727;SDS011;10015;52.530;13.390;2022-10-16T13:49:33;1.05;;;0.70;;
19727;SDS011;10015;52.530;13.390;2022-10-16T13:51:59;1.65;;;0.70;;
19727;SDS011;10015;52.530;13.390;2022-10-16T13:54:26;0.88;;;0.82;;
19727;SDS011;10015;52.530;13.390;2022-10-16T13:56:54;5.97;;;3.95;;
19727;SDS011;10015;52.530;13.390;2022-10-16T13:59:24;6.72;;;4.05;;
19727;SDS011;10015;52.530;13.390;2022-10-16T14:02:05;1.33;;;1.00;;
19727;SDS011;10015;52.530;13.390;2022-10-16T14:05:02;1.00;;;0.60;;
19727;SDS011;10015;52.530;13.390;2022-10-16T14:07:33;3.50;;;0.93;;
19727;SDS011;10015;52.530;13.390;2022-10-16T14:10:22;1.35;;;0.80;;
19727;SDS011;10015;52.530;13.390;2022-10-16T14:12:55;1.20;;;0.80;;
19727;SDS011;10015;52.530;13.390;2022-10-16T14:15:32;2.30;;;0.98;;
19727;SDS011;10015;52.530;13.390;2022-10-16T14:17:59;1.85;;;0.63;;
19727;SDS011;10015;52.530;13.390;2022-10-16T14:20:27;2.05;;;0.70;;
19727;SDS011;10015;52.530;13.390;2022-10-16T14:23:38;0.70;;;0.60;;
19727;SDS011;10015;52.530;13.390;2022-10-16T14:28:38;1.10;;;0.65;;
19727;SDS011;10015;52.530;13.390;2022-10-16T14:33:51;14.45;;;8.30;;
19727;SDS011;10015;52.530;13.390;2022-10-16T14:36:24;4.18;;;2.55;;
19727;SDS011;10015;52.530;13.390;2022-10-16T14:38:56;1.25;;;0.80;;
19727;SDS011;10015;52.530;13.390;2022-10-16T14:41:47;0.70;;;0.70;;
19727;SDS011;10015;52.530;13.390;2022-10-16T14:44:14;0.75;;;0.70;;
19727;SDS011;10015;52.530;13.390;2022-10-16T14:46:43;2.15;;;0.60;;
19727;SDS011;10015;52.530;13.390;2022-10-16T14:51:37;2.43;;;0.77;;
19727;SDS011;10015;52.530;13.390;2022-10-16T14:54:07;0.88;;;0.60;;
19727;SDS011;10015;52.530;13.390;2022-10-16T14:56:41;0.90;;;0.70;;
19727;SDS011;10015;52.530;13.390;2022-10-16T14:59:09;1.20;;;1.00;;
19727;SDS011;10015;52.530;13.390;2022-10-16T15:01:44;1.93;;;0.80;;
19727;SDS011;10015;52.530;13.390;2022-10-16T15:04:11;0.90;;;0.73;;
19727;SDS011;10015;52.530;13.390;2022-10-16T15:06:39;2.30;;;1.27;;
19727;SDS011;10015;52.530;13.390;2022-10-16T15:09:05;2.97;;;0.90;;
19727;SDS011;10015;52.530;13.390;2022-10-16T15:11:31;0.80;;;0.70;;
19727;SDS011;10015;52.530;13.390;2022-10-16T15:13:59;2.50;;;1.17;;
19727;SDS011;10015;52.530;13.390;2022-10-16T15:16:25;1.23;;;1.13;;
19727;SDS011;10015;52.530;13.390;2022-10-16T15:18:51;2.17;;;1.10;;
19727;SDS011;10015;52.530;13.390;2022-10-16T15:23:55;2.13;;;1.10;;
19727;SDS011;10015;52.530;13.390;2022-10-16T15:26:24;0.70;;;0.70;;
19727;SDS011;10015;52.530;13.390;2022-10-16T15:28:51;1.27;;;0.90;;
19727;SDS011;10015;52.530;13.390;2022-10-16T15:31:18;2.00;;;1.33;;
19727;SDS011;10015;52.530;13.390;2022-10-16T15:33:44;2.27;;;1.70;;
19727;SDS011;10015;52.530;13.390;2022-10-16T15:36:16;1.77;;;1.03;;
19727;SDS011;10015;52.530;13.390;2022-10-16T15:38:42;3.03;;;1.40;;
19727;SDS011;10015;52.530;13.390;2022-10-16T15:41:09;23.87;;;13.53;;
19727;SDS011;10015;52.530;13.390;2022-10-16T15:43:35;15.20;;;7.80;;
19727;SDS011;10015;52.530;13.390;2022-10-16T15:46:05;3.23;;;2.17;;
19727;SDS011;10015;52.530;13.390;2022-10-16T15:48:34;1.67;;;1.57;;
19727;SDS011;10015;52.530;13.390;2022-10-16T15:51:04;3.67;;;1.73;;
19727;SDS011;10015;52.530;13.390;2022-10-16T15:53:31;3.07;;;1.70;;
19727;SDS011;10015;52.530;13.390;2022-10-16T15:55:57;1.77;;;1.20;;
19727;SDS011;10015;52.530;13.390;2022-10-16T15:58:23;2.00;;;1.13;;
19727;SDS011;10015;52.530;13.390;2022-10-16T16:00:56;1.20;;;1.07;;
19727;SDS011;10015;52.530;13.390;2022-10-16T16:03:23;2.80;;;1.03;;
19727;SDS011;10015;52.530;13.390;2022-10-16T16:05:49;1.77;;;0.90;;
19727;SDS011;10015;52.530;13.390;2022-10-16T16:08:16;2.40;;;1.10;;
19727;SDS011;10015;52.530;13.390;2022-10-16T16:10:42;3.07;;;1.20;;
19727;SDS011;10015;52.530;13.390;2022-10-16T16:13:11;1.67;;;1.10;;
19727;SDS011;10015;52.530;13.390;2022-10-16T16:15:40;3.60;;;1.13;;
19727;SDS011;10015;52.530;13.390;2022-10-16T16:18:06;4.10;;;1.50;;
19727;SDS011;10015;52.530;13.390;2022-10-16T16:20:34;1.90;;;1.30;;
19727;SDS011;10015;52.530;13.390;2022-10-16T16:23:00;2.17;;;0.93;;
19727;SDS011;10015;52.530;13.390;2022-10-16T16:25:26;2.60;;;1.30;;
19727;SDS011;10015;52.530;13.390;2022-10-16T16:27:56;1.83;;;1.43;;
19727;SDS011;10015;52.530;13.390;2022-10-16T16:30:22;8.10;;;3.03;;
19727;SDS011;10015;52.530;13.390;2022-10-16T16:32:48;6.40;;;2.90;;
19727;SDS011;10015;52.530;13.390;2022-10-16T16:35:14;4.93;;;3.10;;
19727;SDS011;10015;52.530;13.390;2022-10-16T16:37:40;4.40;;;2.47;;
19727;SDS011;10015;52.530;13.390;2022-10-16T16:40:06;4.50;;;1.80;;
19727;SDS011;10015;52.530;13.390;2022-10-16T16:42:32;8.07;;;4.60;;
19727;SDS011;10015;52.530;13.390;2022-10-16T16:44:58;2.07;;;1.40;;
19727;SDS011;10015;52.530;13.390;2022-10-16T16:47:24;6.20;;;3.83;;
19727;SDS011;10015;52.530;13.390;2022-10-16T16:49:51;10.70;;;5.30;;
19727;SDS011;10015;52.530;13.390;2022-10-16T16:52:17;5.50;;;2.90;;
19727;SDS011;10015;52.530;13.390;2022-10-16T16:54:43;5.37;;;2.47;;
19727;SDS011;10015;52.530;13.390;2022-10-16T16:57:16;3.13;;;2.20;;
19727;SDS011;10015;52.530;13.390;2022-10-16T16:59:46;3.97;;;1.83;;
19727;SDS011;10015;52.530;13.390;2022-10-16T17:02:12;3.23;;;1.73;;
19727;SDS011;10015;52.530;13.390;2022-10-16T17:04:38;4.10;;;1.73;;
19727;SDS011;10015;52.530;13.390;2022-10-16T17:07:04;3.00;;;1.90;;
19727;SDS011;10015;52.530;13.390;2022-10-16T17:09:31;4.67;;;1.90;;
19727;SDS011;10015;52.530;13.390;2022-10-16T17:11:58;2.23;;;1.57;;
19727;SDS011;10015;52.530;13.390;2022-10-16T17:14:24;4.53;;;1.73;;
19727;SDS011;10015;52.530;13.390;2022-10-16T17:16:51;2.47;;;1.40;;
19727;SDS011;10015;52.530;13.390;2022-10-16T17:19:18;2.60;;;1.47;;
19727;SDS011;10015;52.530;13.390;2022-10-16T17:21:45;2.63;;;1.40;;
19727;SDS011;10015;52.530;13.390;2022-10-16T17:24:13;2.67;;;1.50;;
19727;SDS011;10015;52.530;13.390;2022-10-16T17:26:42;2.40;;;1.40;;
19727;SDS011;10015;52.530;13.390;2022-10-16T17:29:13;3.10;;;1.80;;
19727;SDS011;10015;52.530;13.390;2022-10-16T17:31:40;6.27;;;2.90;;
19727;SDS011;10015;52.530;13.390;2022-10-16T17:34:06;18.37;;;9.00;;
19727;SDS011;10015;52.530;13.390;2022-10-16T17:36:35;13.50;;;8.20;;
19727;SDS011;10015;52.530;13.390;2022-10-16T17:39:04;8.37;;;5.73;;
19727;SDS011;10015;52.530;13.390;2022-10-16T17:41:33;6.43;;;3.60;;
19727;SDS011;10015;52.530;13.390;2022-10-16T17:44:01;23.67;;;13.90;;
19727;SDS011;10015;52.530;13.390;2022-10-16T17:46:29;15.50;;;7.67;;
19727;SDS011;10015;52.530;13.390;2022-10-16T17:48:55;7.67;;;3.37;;
19727;SDS011;10015;52.530;13.390;2022-10-16T17:51:26;14.43;;;7.90;;
19727;SDS011;10015;52.530;13.390;2022-10-16T17:53:55;6.63;;;2.37;;
19727;SDS011;10015;52.530;13.390;2022-10-16T17:56:24;4.50;;;2.30;;
19727;SDS011;10015;52.530;13.390;2022-10-16T17:58:54;3.67;;;1.73;;
19727;SDS011;10015;52.530;13.390;2022-10-16T18:01:26;4.53;;;1.97;;
19727;SDS011;10015;52.530;13.390;2022-10-16T18:04:01;6.60;;;1.87;;
19727;SDS011;10015;52.530;13.390;2022-10-16T18:06:29;4.90;;;1.90;;
19727;SDS011;10015;52.530;13.390;2022-10-16T18:08:56;4.27;;;2.03;;
19727;SDS011;10015;52.530;13.390;2022-10-16T18:11:23;4.07;;;2.00;;
19727;SDS011;10015;52.530;13.390;2022-10-16T18:13:51;5.13;;;1.83;;
19727;SDS011;10015;52.530;13.390;2022-10-16T18:16:18;4.53;;;2.03;;
19727;SDS011;10015;52.530;13.390;2022-10-16T18:18:44;4.50;;;1.70;;
19727;SDS011;10015;52.530;13.390;2022-10-16T18:21:12;3.03;;;1.50;;
19727;SDS011;10015;52.530;13.390;2022-10-16T18:23:41;3.90;;;1.70;;
19727;SDS011;10015;52.530;13.390;2022-10-16T18:26:09;2.87;;;1.90;;
19727;SDS011;10015;52.530;13.390;2022-10-16T18:28:36;2.70;;;1.97;;
19727;SDS011;10015;52.530;13.390;2022-10-16T18:31:05;6.93;;;3.10;;
19727;SDS011;10015;52.530;13.390;2022-10-16T18:33:35;7.73;;;3.20;;
19727;SDS011;10015;52.530;13.390;2022-10-16T18:36:06;8.07;;;2.90;;
19727;SDS011;10015;52.530;13.390;2022-10-16T18:38:34;5.73;;;2.70;;
19727;SDS011;10015;52.530;13.390;2022-10-16T18:41:01;7.57;;;3.57;;
19727;SDS011;10015;52.530;13.390;2022-10-16T18:43:30;4.30;;;2.50;;
19727;SDS011;10015;52.530;13.390;2022-10-16T18:45:57;4.33;;;2.47;;
19727;SDS011;10015;52.530;13.390;2022-10-16T18:48:25;4.97;;;2.97;;
19727;SDS011;10015;52.530;13.390;2022-10-16T18:50:51;6.57;;;2.97;;
19727;SDS011;10015;52.530;13.390;2022-10-16T18:53:18;5.40;;;3.03;;
19727;SDS011;10015;52.530;13.390;2022-10-16T18:55:50;6.07;;;3.37;;
19727;SDS011;10015;52.530;13.390;2022-10-16T18:58:17;10.50;;;3.60;;
19727;SDS011;10015;52.530;13.390;2022-10-16T19:00:43;7.03;;;2.87;;
19727;SDS011;10015;52.530;13.390;2022-10-16T19:03:09;5.87;;;3.07;;
19727;SDS011;10015;52.530;13.390;2022-10-16T19:05:35;6.60;;;3.43;;
19727;SDS011;10015;52.530;13.390;2022-10-16T19:08:01;10.07;;;4.03;;
19727;SDS011;10015;52.530;13.390;2022-10-16T19:10:27;10.43;;;4.47;;
19727;SDS011;10015;52.530;13.390;2022-10-16T19:12:53;7.97;;;4.07;;
19727;SDS011;10015;52.530;13.390;2022-10-16T19:15:19;7.53;;;3.90;;
19727;SDS011;10015;52.530;13.390;2022-10-16T19:17:46;11.93;;;4.77;;
19727;SDS011;10015;52.530;13.390;2022-10-16T19:20:12;7.87;;;4.03;;
19727;SDS011;10015;52.530;13.390;2022-10-16T19:22:38;7.17;;;4.33;;
19727;SDS011;10015;52.530;13.390;2022-10-16T19:25:18;9.77;;;4.03;;
19727;SDS011;10015;52.530;13.390;2022-10-16T19:27:48;11.30;;;4.47;;
19727;SDS011;10015;52.530;13.390;2022-10-16T19:30:15;10.90;;;4.60;;
19727;SDS011;10015;52.530;13.390;2022-10-16T19:32:42;8.17;;;4.60;;
19727;SDS011;10015;52.530;13.390;2022-10-16T19:35:09;9.70;;;4.60;;
19727;SDS011;10015;52.530;13.390;2022-10-16T19:37:35;14.47;;;4.77;;
19727;SDS011;10015;52.530;13.390;2022-10-16T19:40:02;10.63;;;5.03;;
19727;SDS011;10015;52.530;13.390;2022-10-16T19:42:29;9.03;;;4.07;;
19727;SDS011;10015;52.530;13.390;2022-10-16T19:44:55;9.07;;;4.77;;
19727;SDS011;10015;52.530;13.390;2022-10-16T19:47:21;9.47;;;4.70;;
19727;SDS011;10015;52.530;13.390;2022-10-16T19:49:48;11.37;;;4.73;;
19727;SDS011;10015;52.530;13.390;2022-10-16T19:52:15;13.50;;;5.30;;
19727;SDS011;10015;52.530;13.390;2022-10-16T19:54:41;9.93;;;5.27;;
19727;SDS011;10015;52.530;13.390;2022-10-16T19:57:07;11.90;;;5.77;;
19727;SDS011;10015;52.530;13.390;2022-10-16T19:59:33;11.03;;;5.50;;
19727;SDS011;10015;52.530;13.390;2022-10-16T20:02:00;12.03;;;5.97;;
19727;SDS011;10015;52.530;13.390;2022-10-16T20:04:26;14.97;;;6.13;;
19727;SDS011;10015;52.530;13.390;2022-10-16T20:06:53;13.37;;;6.27;;
19727;SDS011;10015;52.530;13.390;2022-10-16T20:09:19;17.70;;;7.00;;
19727;SDS011;10015;52.530;13.390;2022-10-16T20:11:45;14.03;;;7.30;;
19727;SDS011;10015;52.530;13.390;2022-10-16T20:14:11;15.47;;;7.23;;
19727;SDS011;10015;52.530;13.390;2022-10-16T20:16:36;17.77;;;7.47;;
19727;SDS011;10015;52.530;13.390;2022-10-16T20:19:04;16.30;;;7.57;;
19727;SDS011;10015;52.530;13.390;2022-10-16T20:21:33;18.03;;;7.93;;
19727;SDS011;10015;52.530;13.390;2022-10-16T20:24:01;17.10;;;8.50;;
19727;SDS011;10015;52.530;13.390;2022-10-16T20:26:29;15.53;;;8.23;;
19727;SDS011;10015;52.530;13.390;2022-10-16T20:28:55;18.40;;;8.67;;
19727;SDS011;10015;52.530;13.390;2022-10-16T20:31:25;18.10;;;8.67;;
19727;SDS011;10015;52.530;13.390;2022-10-16T20:33:54;16.93;;;8.53;;
19727;SDS011;10015;52.530;13.390;2022-10-16T20:36:21;15.63;;;8.47;;
19727;SDS011;10015;52.530;13.390;2022-10-16T20:38:49;15.87;;;8.17;;
19727;SDS011;10015;52.530;13.390;2022-10-16T20:41:16;15.40;;;8.57;;
19727;SDS011;10015;52.530;13.390;2022-10-16T20:43:44;18.57;;;9.13;;
19727;SDS011;10015;52.530;13.390;2022-10-16T20:46:13;19.80;;;10.27;;
19727;SDS011;10015;52.530;13.390;2022-10-16T20:48:41;19.67;;;8.83;;
19727;SDS011;10015;52.530;13.390;2022-10-16T20:53:44;17.13;;;9.07;;
19727;SDS011;10015;52.530;13.390;2022-10-16T20:56:12;19.53;;;9.37;;
19727;SDS011;10015;52.530;13.390;2022-10-16T20:58:40;20.00;;;9.53;;
19727;SDS011;10015;52.530;13.390;2022-10-16T21:01:06;17.23;;;9.67;;
19727;SDS011;10015;52.530;13.390;2022-10-16T21:03:34;19.30;;;10.73;;
19727;SDS011;10015;52.530;13.390;2022-10-16T21:06:02;30.80;;;17.00;;
19727;SDS011;10015;52.530;13.390;2022-10-16T21:08:29;33.50;;;18.73;;
19727;SDS011;10015;52.530;13.390;2022-10-16T21:10:58;34.83;;;19.50;;
19727;SDS011;10015;52.530;13.390;2022-10-16T21:13:24;26.50;;;13.83;;
19727;SDS011;10015;52.530;13.390;2022-10-16T21:15:50;29.10;;;16.00;;
19727;SDS011;10015;52.530;13.390;2022-10-16T21:18:16;19.50;;;10.27;;
19727;SDS011;10015;52.530;13.390;2022-10-16T21:20:42;18.13;;;9.80;;
19727;SDS011;10015;52.530;13.390;2022-10-16T21:23:08;23.37;;;10.47;;
19727;SDS011;10015;52.530;13.390;2022-10-16T21:25:35;19.47;;;9.77;;
19727;SDS011;10015;52.530;13.390;2022-10-16T21:28:00;23.13;;;10.83;;
19727;SDS011;10015;52.530;13.390;2022-10-16T21:30:26;17.67;;;9.87;;
19727;SDS011;10015;52.530;13.390;2022-10-16T21:32:52;17.77;;;9.83;;
19727;SDS011;10015;52.530;13.390;2022-10-16T21:35:18;20.47;;;13.23;;
19727;SDS011;10015;52.530;13.390;2022-10-16T21:37:47;19.60;;;10.60;;
19727;SDS011;10015;52.530;13.390;2022-10-16T21:40:13;16.70;;;9.77;;
19727;SDS011;10015;52.530;13.390;2022-10-16T21:42:40;16.80;;;9.77;;
19727;SDS011;10015;52.530;13.390;2022-10-16T21:45:05;19.97;;;10.17;;
19727;SDS011;10015;52.530;13.390;2022-10-16T21:47:32;16.70;;;9.50;;
19727;SDS011;10015;52.530;13.390;2022-10-16T21:49:58;19.20;;;9.97;;
19727;SDS011;10015;52.530;13.390;2022-10-16T21:52:31;16.53;;;9.10;;
19727;SDS011;10015;52.530;13.390;2022-10-16T21:54:57;17.73;;;9.60;;
19727;SDS011;10015;52.530;13.390;2022-10-16T21:57:23;22.00;;;10.03;;
19727;SDS011;10015;52.530;13.390;2022-10-16T21:59:48;15.40;;;9.07;;
19727;SDS011;10015;52.530;13.390;2022-10-16T22:02:14;17.53;;;9.73;;
19727;SDS011;10015;52.530;13.390;2022-10-16T22:04:40;21.50;;;10.60;;
19727;SDS011;10015;52.530;13.390;2022-10-16T22:07:06;18.43;;;10.27;;
19727;SDS011;10015;52.530;13.390;2022-10-16T22:09:32;19.53;;;10.20;;
19727;SDS011;10015;52.530;13.390;2022-10-16T22:11:58;19.00;;;9.60;;
19727;SDS011;10015;52.530;13.390;2022-10-16T22:14:24;33.00;;;15.83;;